sensor_id;sensor_type;location;lat;lon;timestamp;temperature;humidity
23335;DHT22;11839;48.598;8.870;2023-07-22T00:00:02;17.70;99.90
23335;DHT22;11839;48.598;8.870;2023-07-22T00:02:31;17.80;99.90
23335;DHT22;11839;48.598;8.870;2023-07-22T00:04:59;18.00;99.90
23335;DHT22;11839;48.598;8.870;2023-07-22T00:07:26;17.90;99.90
23335;DHT22;11839;48.598;8.870;2023-07-22T00:09:53;17.80;99.90
23335;DHT22;11839;48.598;8.870;2023-07-22T00:12:20;17.60;99.90
23335;DHT22;11839;48.598;8.870;2023-07-22T00:14:51;17.20;99.90
23335;DHT22;11839;48.598;8.870;2023-07-22T00:17:18;17.40;99.90
23335;DHT22;11839;48.598;8.870;2023-07-22T00:19:46;17.30;99.90
23335;DHT22;11839;48.598;8.870;2023-07-22T00:22:14;16.70;99.90
23335;DHT22;11839;48.598;8.870;2023-07-22T00:24:41;16.70;99.90
23335;DHT22;11839;48.598;8.870;2023-07-22T00:27:09;16.50;99.90
23335;DHT22;11839;48.598;8.870;2023-07-22T00:29:36;16.40;99.90
23335;DHT22;11839;48.598;8.870;2023-07-22T00:32:04;16.30;99.90
23335;DHT22;11839;48.598;8.870;2023-07-22T00:34:32;16.30;99.90
23335;DHT22;11839;48.598;8.870;2023-07-22T00:36:59;16.20;99.90
23335;DHT22;11839;48.598;8.870;2023-07-22T00:39:27;16.00;99.90
23335;DHT22;11839;48.598;8.870;2023-07-22T00:41:54;16.40;99.90
23335;DHT22;11839;48.598;8.870;2023-07-22T00:44:20;16.60;99.90
23335;DHT22;11839;48.598;8.870;2023-07-22T00:46:48;16.70;99.90
23335;DHT22;11839;48.598;8.870;2023-07-22T00:49:15;17.00;99.90
23335;DHT22;11839;48.598;8.870;2023-07-22T00:51:42;16.90;99.90
23335;DHT22;11839;48.598;8.870;2023-07-22T00:54:09;17.00;99.90
23335;DHT22;11839;48.598;8.870;2023-07-22T00:56:38;17.00;99.90
23335;DHT22;11839;48.598;8.870;2023-07-22T00:59:05;17.00;99.90
23335;DHT22;11839;48.598;8.870;2023-07-22T01:01:32;17.10;99.90
23335;DHT22;11839;48.598;8.870;2023-07-22T01:03:59;17.00;99.90
23335;DHT22;11839;48.598;8.870;2023-07-22T01:06:27;16.70;99.90
23335;DHT22;11839;48.598;8.870;2023-07-22T01:08:56;16.70;99.90
23335;DHT22;11839;48.598;8.870;2023-07-22T01:11:24;16.80;99.90
23335;DHT22;11839;48.598;8.870;2023-07-22T01:13:52;17.00;99.90
23335;DHT22;11839;48.598;8.870;2023-07-22T01:16:24;16.60;99.90
23335;DHT22;11839;48.598;8.870;2023-07-22T01:18:52;16.50;99.90
23335;DHT22;11839;48.598;8.870;2023-07-22T01:21:20;16.40;99.90
23335;DHT22;11839;48.598;8.870;2023-07-22T01:23:49;16.20;99.90
23335;DHT22;11839;48.598;8.870;2023-07-22T01:26:16;16.10;99.90
23335;DHT22;11839;48.598;8.870;2023-07-22T01:28:43;16.10;99.90
23335;DHT22;11839;48.598;8.870;2023-07-22T01:31:10;16.30;99.90
23335;DHT22;11839;48.598;8.870;2023-07-22T01:33:37;16.50;99.90
23335;DHT22;11839;48.598;8.870;2023-07-22T01:36:05;16.60;99.90
23335;DHT22;11839;48.598;8.870;2023-07-22T01:38:33;16.60;99.90
23335;DHT22;11839;48.598;8.870;2023-07-22T01:41:01;16.50;99.90
23335;DHT22;11839;48.598;8.870;2023-07-22T01:43:28;16.40;99.90
23335;DHT22;11839;48.598;8.870;2023-07-22T01:45:55;16.40;99.90
23335;DHT22;11839;48.598;8.870;2023-07-22T01:48:21;16.50;99.90
23335;DHT22;11839;48.598;8.870;2023-07-22T01:50:49;16.70;99.90
23335;DHT22;11839;48.598;8.870;2023-07-22T01:53:15;16.80;99.90
23335;DHT22;11839;48.598;8.870;2023-07-22T01:55:42;16.70;99.90
23335;DHT22;11839;48.598;8.870;2023-07-22T01:58:11;16.80;99.90
23335;DHT22;11839;48.598;8.870;2023-07-22T02:00:38;16.70;99.90
23335;DHT22;11839;48.598;8.870;2023-07-22T02:03:05;16.80;99.90
23335;DHT22;11839;48.598;8.870;2023-07-22T02:05:31;16.60;99.90
23335;DHT22;11839;48.598;8.870;2023-07-22T02:07:58;16.60;99.90
23335;DHT22;11839;48.598;8.870;2023-07-22T02:10:25;16.50;99.90
23335;DHT22;11839;48.598;8.870;2023-07-22T02:12:52;16.60;99.90
23335;DHT22;11839;48.598;8.870;2023-07-22T02:15:20;16.70;99.90
23335;DHT22;11839;48.598;8.870;2023-07-22T02:17:50;16.40;99.90
23335;DHT22;11839;48.598;8.870;2023-07-22T02:20:17;16.10;99.90
23335;DHT22;11839;48.598;8.870;2023-07-22T02:22:43;15.90;99.90
23335;DHT22;11839;48.598;8.870;2023-07-22T02:25:10;15.70;99.90
23335;DHT22;11839;48.598;8.870;2023-07-22T02:27:37;15.70;99.90
23335;DHT22;11839;48.598;8.870;2023-07-22T02:30:06;15.70;99.90
23335;DHT22;11839;48.598;8.870;2023-07-22T02:32:37;15.40;99.90
23335;DHT22;11839;48.598;8.870;2023-07-22T02:35:05;15.30;99.90
23335;DHT22;11839;48.598;8.870;2023-07-22T02:37:32;15.10;99.90
23335;DHT22;11839;48.598;8.870;2023-07-22T02:39:59;14.70;99.90
23335;DHT22;11839;48.598;8.870;2023-07-22T02:42:26;14.50;99.90
23335;DHT22;11839;48.598;8.870;2023-07-22T02:44:53;14.80;99.90
23335;DHT22;11839;48.598;8.870;2023-07-22T02:47:20;14.90;99.90
23335;DHT22;11839;48.598;8.870;2023-07-22T02:49:48;14.90;99.90
23335;DHT22;11839;48.598;8.870;2023-07-22T02:52:15;14.70;99.90
23335;DHT22;11839;48.598;8.870;2023-07-22T02:54:42;14.70;99.90
23335;DHT22;11839;48.598;8.870;2023-07-22T02:57:09;14.90;99.90
23335;DHT22;11839;48.598;8.870;2023-07-22T02:59:36;14.70;99.90
23335;DHT22;11839;48.598;8.870;2023-07-22T03:02:03;14.70;99.90
23335;DHT22;11839;48.598;8.870;2023-07-22T03:04:29;14.90;99.90
23335;DHT22;11839;48.598;8.870;2023-07-22T03:06:57;14.70;99.90
23335;DHT22;11839;48.598;8.870;2023-07-22T03:09:24;14.70;99.90
23335;DHT22;11839;48.598;8.870;2023-07-22T03:11:51;14.50;99.90
23335;DHT22;11839;48.598;8.870;2023-07-22T03:14:18;14.50;99.90
23335;DHT22;11839;48.598;8.870;2023-07-22T03:16:46;14.20;99.90
23335;DHT22;11839;48.598;8.870;2023-07-22T03:19:12;14.20;99.90
23335;DHT22;11839;48.598;8.870;2023-07-22T03:21:39;14.10;99.90
23335;DHT22;11839;48.598;8.870;2023-07-22T03:24:07;14.20;99.90
23335;DHT22;11839;48.598;8.870;2023-07-22T03:26:34;14.20;99.90
23335;DHT22;11839;48.598;8.870;2023-07-22T03:29:01;14.20;99.90
23335;DHT22;11839;48.598;8.870;2023-07-22T03:31:30;14.40;99.90
23335;DHT22;11839;48.598;8.870;2023-07-22T03:33:57;14.20;99.90
23335;DHT22;11839;48.598;8.870;2023-07-22T03:36:24;13.90;99.90
23335;DHT22;11839;48.598;8.870;2023-07-22T03:38:50;14.30;99.90
23335;DHT22;11839;48.598;8.870;2023-07-22T03:41:19;14.50;99.90
23335;DHT22;11839;48.598;8.870;2023-07-22T03:43:45;14.40;99.90
23335;DHT22;11839;48.598;8.870;2023-07-22T03:46:12;14.50;99.90
23335;DHT22;11839;48.598;8.870;2023-07-22T03:48:39;14.60;99.90
23335;DHT22;11839;48.598;8.870;2023-07-22T03:51:06;14.50;99.90
23335;DHT22;11839;48.598;8.870;2023-07-22T03:53:33;14.80;99.90
23335;DHT22;11839;48.598;8.870;2023-07-22T03:55:59;15.00;99.90
23335;DHT22;11839;48.598;8.870;2023-07-22T03:58:27;15.20;99.90
23335;DHT22;11839;48.598;8.870;2023-07-22T04:00:54;15.30;99.90
23335;DHT22;11839;48.598;8.870;2023-07-22T04:03:21;15.20;99.90
23335;DHT22;11839;48.598;8.870;2023-07-22T04:05:53;15.20;99.90
23335;DHT22;11839;48.598;8.870;2023-07-22T04:08:20;15.50;99.90
23335;DHT22;11839;48.598;8.870;2023-07-22T04:10:51;15.70;99.90
23335;DHT22;11839;48.598;8.870;2023-07-22T04:13:18;15.80;99.90
23335;DHT22;11839;48.598;8.870;2023-07-22T04:15:47;15.80;99.90
23335;DHT22;11839;48.598;8.870;2023-07-22T04:18:15;15.80;99.90
23335;DHT22;11839;48.598;8.870;2023-07-22T04:20:42;15.80;99.90
23335;DHT22;11839;48.598;8.870;2023-07-22T04:23:08;15.60;99.90
23335;DHT22;11839;48.598;8.870;2023-07-22T04:25:39;15.70;99.90
23335;DHT22;11839;48.598;8.870;2023-07-22T04:28:05;16.20;99.90
23335;DHT22;11839;48.598;8.870;2023-07-22T04:30:32;16.20;99.90
23335;DHT22;11839;48.598;8.870;2023-07-22T04:33:01;15.70;99.90
23335;DHT22;11839;48.598;8.870;2023-07-22T04:35:31;15.30;99.90
23335;DHT22;11839;48.598;8.870;2023-07-22T04:37:57;15.30;99.90
23335;DHT22;11839;48.598;8.870;2023-07-22T04:40:24;15.30;99.90
23335;DHT22;11839;48.598;8.870;2023-07-22T04:42:51;15.50;99.90
23335;DHT22;11839;48.598;8.870;2023-07-22T04:45:18;15.70;99.90
23335;DHT22;11839;48.598;8.870;2023-07-22T04:47:45;16.00;99.90
23335;DHT22;11839;48.598;8.870;2023-07-22T04:50:15;16.10;99.90
23335;DHT22;11839;48.598;8.870;2023-07-22T04:52:43;16.10;99.90
23335;DHT22;11839;48.598;8.870;2023-07-22T04:55:10;16.00;99.90
23335;DHT22;11839;48.598;8.870;2023-07-22T04:57:38;16.10;99.90
23335;DHT22;11839;48.598;8.870;2023-07-22T05:00:07;16.20;99.90
23335;DHT22;11839;48.598;8.870;2023-07-22T05:02:37;16.40;99.90
23335;DHT22;11839;48.598;8.870;2023-07-22T05:05:04;16.40;99.90
23335;DHT22;11839;48.598;8.870;2023-07-22T05:07:33;16.60;99.90
23335;DHT22;11839;48.598;8.870;2023-07-22T05:10:00;16.50;99.90
23335;DHT22;11839;48.598;8.870;2023-07-22T05:12:27;16.60;99.90
23335;DHT22;11839;48.598;8.870;2023-07-22T05:14:54;16.80;99.90
23335;DHT22;11839;48.598;8.870;2023-07-22T05:17:20;17.10;99.90
23335;DHT22;11839;48.598;8.870;2023-07-22T05:19:47;17.20;99.90
23335;DHT22;11839;48.598;8.870;2023-07-22T05:22:14;16.90;99.90
23335;DHT22;11839;48.598;8.870;2023-07-22T05:24:43;16.50;99.90
23335;DHT22;11839;48.598;8.870;2023-07-22T05:27:10;16.20;99.90
23335;DHT22;11839;48.598;8.870;2023-07-22T05:29:37;15.70;99.90
23335;DHT22;11839;48.598;8.870;2023-07-22T05:32:04;15.60;99.90
23335;DHT22;11839;48.598;8.870;2023-07-22T05:34:31;15.40;99.90
23335;DHT22;11839;48.598;8.870;2023-07-22T05:36:58;15.50;99.90
23335;DHT22;11839;48.598;8.870;2023-07-22T05:39:25;15.70;99.90
23335;DHT22;11839;48.598;8.870;2023-07-22T05:41:53;15.80;99.90
23335;DHT22;11839;48.598;8.870;2023-07-22T05:44:21;16.00;99.90
23335;DHT22;11839;48.598;8.870;2023-07-22T05:46:47;16.10;99.90
23335;DHT22;11839;48.598;8.870;2023-07-22T05:49:14;16.10;99.90
23335;DHT22;11839;48.598;8.870;2023-07-22T05:51:41;16.10;99.90
23335;DHT22;11839;48.598;8.870;2023-07-22T05:54:08;15.80;99.90
23335;DHT22;11839;48.598;8.870;2023-07-22T05:56:34;15.70;99.90
23335;DHT22;11839;48.598;8.870;2023-07-22T05:59:03;16.30;99.90
23335;DHT22;11839;48.598;8.870;2023-07-22T06:01:29;16.20;99.90
23335;DHT22;11839;48.598;8.870;2023-07-22T06:03:56;16.30;99.90
23335;DHT22;11839;48.598;8.870;2023-07-22T06:06:24;16.10;99.90
23335;DHT22;11839;48.598;8.870;2023-07-22T06:08:50;16.00;99.90
23335;DHT22;11839;48.598;8.870;2023-07-22T06:11:17;16.20;99.90
23335;DHT22;11839;48.598;8.870;2023-07-22T06:13:44;16.50;99.90
23335;DHT22;11839;48.598;8.870;2023-07-22T06:16:12;16.50;99.90
23335;DHT22;11839;48.598;8.870;2023-07-22T06:18:40;16.40;99.90
23335;DHT22;11839;48.598;8.870;2023-07-22T06:21:07;16.60;99.90
23335;DHT22;11839;48.598;8.870;2023-07-22T06:23:33;16.70;99.90
23335;DHT22;11839;48.598;8.870;2023-07-22T06:26:00;17.10;99.90
23335;DHT22;11839;48.598;8.870;2023-07-22T06:28:27;17.70;99.90
23335;DHT22;11839;48.598;8.870;2023-07-22T06:30:54;17.60;99.90
23335;DHT22;11839;48.598;8.870;2023-07-22T06:33:22;17.50;99.90
23335;DHT22;11839;48.598;8.870;2023-07-22T06:35:49;17.80;99.90
23335;DHT22;11839;48.598;8.870;2023-07-22T06:38:15;18.40;99.90
23335;DHT22;11839;48.598;8.870;2023-07-22T06:40:42;18.60;99.90
23335;DHT22;11839;48.598;8.870;2023-07-22T06:43:09;18.30;99.90
23335;DHT22;11839;48.598;8.870;2023-07-22T06:45:36;18.80;99.90
23335;DHT22;11839;48.598;8.870;2023-07-22T06:48:03;18.90;99.90
23335;DHT22;11839;48.598;8.870;2023-07-22T06:50:31;19.30;99.90
23335;DHT22;11839;48.598;8.870;2023-07-22T06:52:58;19.70;99.90
23335;DHT22;11839;48.598;8.870;2023-07-22T06:55:24;19.70;99.90
23335;DHT22;11839;48.598;8.870;2023-07-22T06:57:51;19.80;99.90
23335;DHT22;11839;48.598;8.870;2023-07-22T07:00:18;20.10;99.90
23335;DHT22;11839;48.598;8.870;2023-07-22T07:02:45;19.90;99.90
23335;DHT22;11839;48.598;8.870;2023-07-22T07:05:11;19.80;99.90
23335;DHT22;11839;48.598;8.870;2023-07-22T07:07:39;19.50;99.90
23335;DHT22;11839;48.598;8.870;2023-07-22T07:10:07;19.60;99.90
23335;DHT22;11839;48.598;8.870;2023-07-22T07:12:34;19.60;99.90
23335;DHT22;11839;48.598;8.870;2023-07-22T07:15:01;19.80;99.90
23335;DHT22;11839;48.598;8.870;2023-07-22T07:17:28;20.20;99.90
23335;DHT22;11839;48.598;8.870;2023-07-22T07:19:54;20.50;99.90
23335;DHT22;11839;48.598;8.870;2023-07-22T07:22:21;20.80;99.90
23335;DHT22;11839;48.598;8.870;2023-07-22T07:24:49;21.20;99.90
23335;DHT22;11839;48.598;8.870;2023-07-22T07:27:16;21.50;99.90
23335;DHT22;11839;48.598;8.870;2023-07-22T07:29:43;21.90;99.90
23335;DHT22;11839;48.598;8.870;2023-07-22T07:32:10;22.10;99.90
23335;DHT22;11839;48.598;8.870;2023-07-22T07:34:36;22.20;99.90
23335;DHT22;11839;48.598;8.870;2023-07-22T07:37:04;22.00;99.90
23335;DHT22;11839;48.598;8.870;2023-07-22T07:39:31;22.40;99.90
23335;DHT22;11839;48.598;8.870;2023-07-22T07:41:59;22.70;99.90
23335;DHT22;11839;48.598;8.870;2023-07-22T07:44:25;22.80;99.90
23335;DHT22;11839;48.598;8.870;2023-07-22T07:46:52;22.80;99.90
23335;DHT22;11839;48.598;8.870;2023-07-22T07:49:19;23.40;99.90
23335;DHT22;11839;48.598;8.870;2023-07-22T07:51:46;24.10;99.90
23335;DHT22;11839;48.598;8.870;2023-07-22T07:54:13;24.40;99.90
23335;DHT22;11839;48.598;8.870;2023-07-22T07:56:40;24.50;99.90
23335;DHT22;11839;48.598;8.870;2023-07-22T07:59:08;24.50;99.90
23335;DHT22;11839;48.598;8.870;2023-07-22T08:01:35;24.60;99.70
23335;DHT22;11839;48.598;8.870;2023-07-22T08:04:03;25.10;99.30
23335;DHT22;11839;48.598;8.870;2023-07-22T08:06:30;25.10;97.40
23335;DHT22;11839;48.598;8.870;2023-07-22T08:08:56;25.00;97.50
23335;DHT22;11839;48.598;8.870;2023-07-22T08:11:24;25.00;96.00
23335;DHT22;11839;48.598;8.870;2023-07-22T08:13:51;25.30;95.70
23335;DHT22;11839;48.598;8.870;2023-07-22T08:16:19;25.50;95.60
23335;DHT22;11839;48.598;8.870;2023-07-22T08:18:46;25.50;93.30
23335;DHT22;11839;48.598;8.870;2023-07-22T08:21:13;25.50;90.20
23335;DHT22;11839;48.598;8.870;2023-07-22T08:23:40;25.60;87.50
23335;DHT22;11839;48.598;8.870;2023-07-22T08:26:07;25.80;81.30
23335;DHT22;11839;48.598;8.870;2023-07-22T08:28:33;25.90;79.20
23335;DHT22;11839;48.598;8.870;2023-07-22T08:31:00;26.00;81.00
23335;DHT22;11839;48.598;8.870;2023-07-22T08:33:29;25.90;82.30
23335;DHT22;11839;48.598;8.870;2023-07-22T08:35:56;26.10;80.70
23335;DHT22;11839;48.598;8.870;2023-07-22T08:38:23;26.30;77.10
23335;DHT22;11839;48.598;8.870;2023-07-22T08:40:50;26.40;74.50
23335;DHT22;11839;48.598;8.870;2023-07-22T08:43:20;26.20;75.10
23335;DHT22;11839;48.598;8.870;2023-07-22T08:45:48;26.20;75.40
23335;DHT22;11839;48.598;8.870;2023-07-22T08:48:17;26.10;75.50
23335;DHT22;11839;48.598;8.870;2023-07-22T08:50:49;26.10;76.70
23335;DHT22;11839;48.598;8.870;2023-07-22T08:53:17;25.80;77.20
23335;DHT22;11839;48.598;8.870;2023-07-22T08:55:45;25.50;78.10
23335;DHT22;11839;48.598;8.870;2023-07-22T08:58:13;25.40;79.00
23335;DHT22;11839;48.598;8.870;2023-07-22T09:00:40;25.50;79.20
23335;DHT22;11839;48.598;8.870;2023-07-22T09:03:07;25.50;79.80
23335;DHT22;11839;48.598;8.870;2023-07-22T09:05:36;25.80;80.40
23335;DHT22;11839;48.598;8.870;2023-07-22T09:08:06;25.50;80.20
23335;DHT22;11839;48.598;8.870;2023-07-22T09:10:34;25.70;80.70
23335;DHT22;11839;48.598;8.870;2023-07-22T09:13:01;25.10;79.10
23335;DHT22;11839;48.598;8.870;2023-07-22T09:15:28;24.50;80.10
23335;DHT22;11839;48.598;8.870;2023-07-22T09:17:55;24.10;82.10
23335;DHT22;11839;48.598;8.870;2023-07-22T09:20:22;24.30;82.30
23335;DHT22;11839;48.598;8.870;2023-07-22T09:22:50;24.20;82.70
23335;DHT22;11839;48.598;8.870;2023-07-22T09:25:20;24.10;82.80
23335;DHT22;11839;48.598;8.870;2023-07-22T09:27:48;24.50;82.90
23335;DHT22;11839;48.598;8.870;2023-07-22T09:30:25;24.60;82.40
23335;DHT22;11839;48.598;8.870;2023-07-22T09:32:53;24.80;82.50
23335;DHT22;11839;48.598;8.870;2023-07-22T09:35:21;24.80;82.50
23335;DHT22;11839;48.598;8.870;2023-07-22T09:37:48;24.80;80.80
23335;DHT22;11839;48.598;8.870;2023-07-22T09:40:20;24.30;81.70
23335;DHT22;11839;48.598;8.870;2023-07-22T09:42:47;24.20;82.90
23335;DHT22;11839;48.598;8.870;2023-07-22T09:45:15;24.00;84.60
23335;DHT22;11839;48.598;8.870;2023-07-22T09:47:43;24.10;84.70
23335;DHT22;11839;48.598;8.870;2023-07-22T09:50:14;24.70;84.00
23335;DHT22;11839;48.598;8.870;2023-07-22T09:52:46;24.70;83.20
23335;DHT22;11839;48.598;8.870;2023-07-22T09:55:15;25.20;84.70
23335;DHT22;11839;48.598;8.870;2023-07-22T09:57:45;25.60;82.80
23335;DHT22;11839;48.598;8.870;2023-07-22T10:00:15;25.80;82.50
23335;DHT22;11839;48.598;8.870;2023-07-22T10:02:43;26.60;82.20
23335;DHT22;11839;48.598;8.870;2023-07-22T10:05:15;26.90;74.80
23335;DHT22;11839;48.598;8.870;2023-07-22T10:07:44;27.10;72.90
23335;DHT22;11839;48.598;8.870;2023-07-22T10:10:12;27.60;72.70
23335;DHT22;11839;48.598;8.870;2023-07-22T10:12:41;27.20;73.10
23335;DHT22;11839;48.598;8.870;2023-07-22T10:15:13;26.80;74.20
23335;DHT22;11839;48.598;8.870;2023-07-22T10:17:41;26.70;72.60
23335;DHT22;11839;48.598;8.870;2023-07-22T10:20:09;26.30;72.90
23335;DHT22;11839;48.598;8.870;2023-07-22T10:22:41;26.20;71.20
23335;DHT22;11839;48.598;8.870;2023-07-22T10:25:11;26.80;72.80
23335;DHT22;11839;48.598;8.870;2023-07-22T10:27:38;27.50;71.60
23335;DHT22;11839;48.598;8.870;2023-07-22T10:30:07;27.40;72.40
23335;DHT22;11839;48.598;8.870;2023-07-22T10:32:38;27.30;71.70
23335;DHT22;11839;48.598;8.870;2023-07-22T10:35:08;27.40;73.50
23335;DHT22;11839;48.598;8.870;2023-07-22T10:37:37;27.30;75.80
23335;DHT22;11839;48.598;8.870;2023-07-22T10:40:25;27.40;75.80
23335;DHT22;11839;48.598;8.870;2023-07-22T10:42:54;26.80;75.00
23335;DHT22;11839;48.598;8.870;2023-07-22T10:45:26;26.50;75.80
23335;DHT22;11839;48.598;8.870;2023-07-22T10:48:06;26.10;77.70
23335;DHT22;11839;48.598;8.870;2023-07-22T10:50:40;25.40;79.90
23335;DHT22;11839;48.598;8.870;2023-07-22T10:53:13;25.20;81.50
23335;DHT22;11839;48.598;8.870;2023-07-22T10:56:11;25.20;82.30
23335;DHT22;11839;48.598;8.870;2023-07-22T10:58:58;25.10;82.10
23335;DHT22;11839;48.598;8.870;2023-07-22T11:01:35;24.80;83.40
23335;DHT22;11839;48.598;8.870;2023-07-22T11:04:06;25.30;81.90
23335;DHT22;11839;48.598;8.870;2023-07-22T11:06:33;25.80;80.00
23335;DHT22;11839;48.598;8.870;2023-07-22T11:09:00;26.40;78.30
23335;DHT22;11839;48.598;8.870;2023-07-22T11:11:35;26.60;77.90
23335;DHT22;11839;48.598;8.870;2023-07-22T11:14:13;27.20;76.30
23335;DHT22;11839;48.598;8.870;2023-07-22T11:16:42;27.20;75.10
23335;DHT22;11839;48.598;8.870;2023-07-22T11:19:10;27.30;74.50
23335;DHT22;11839;48.598;8.870;2023-07-22T11:21:37;27.00;74.10
23335;DHT22;11839;48.598;8.870;2023-07-22T11:24:04;26.70;75.80
23335;DHT22;11839;48.598;8.870;2023-07-22T11:26:31;26.40;77.70
23335;DHT22;11839;48.598;8.870;2023-07-22T11:28:58;26.30;77.30
23335;DHT22;11839;48.598;8.870;2023-07-22T11:31:30;25.70;78.80
23335;DHT22;11839;48.598;8.870;2023-07-22T11:33:57;26.10;79.20
23335;DHT22;11839;48.598;8.870;2023-07-22T11:36:25;26.40;74.70
23335;DHT22;11839;48.598;8.870;2023-07-22T11:38:52;26.90;75.80
23335;DHT22;11839;48.598;8.870;2023-07-22T11:41:20;26.80;74.90
23335;DHT22;11839;48.598;8.870;2023-07-22T11:43:47;26.40;76.80
23335;DHT22;11839;48.598;8.870;2023-07-22T11:46:14;26.50;76.10
23335;DHT22;11839;48.598;8.870;2023-07-22T11:48:49;26.70;74.80
23335;DHT22;11839;48.598;8.870;2023-07-22T11:51:17;26.90;75.30
23335;DHT22;11839;48.598;8.870;2023-07-22T11:53:47;27.50;73.90
23335;DHT22;11839;48.598;8.870;2023-07-22T11:56:18;27.40;73.80
23335;DHT22;11839;48.598;8.870;2023-07-22T11:58:49;27.80;72.80
23335;DHT22;11839;48.598;8.870;2023-07-22T12:01:16;27.90;70.60
23335;DHT22;11839;48.598;8.870;2023-07-22T12:03:43;28.10;69.10
23335;DHT22;11839;48.598;8.870;2023-07-22T12:06:10;28.10;70.50
23335;DHT22;11839;48.598;8.870;2023-07-22T12:08:43;27.90;69.70
23335;DHT22;11839;48.598;8.870;2023-07-22T12:11:17;27.30;72.00
23335;DHT22;11839;48.598;8.870;2023-07-22T12:13:45;26.60;74.50
23335;DHT22;11839;48.598;8.870;2023-07-22T12:16:21;26.50;75.00
23335;DHT22;11839;48.598;8.870;2023-07-22T12:18:49;26.70;75.40
23335;DHT22;11839;48.598;8.870;2023-07-22T12:21:16;26.60;73.70
23335;DHT22;11839;48.598;8.870;2023-07-22T12:23:43;26.30;75.10
23335;DHT22;11839;48.598;8.870;2023-07-22T12:26:10;27.00;74.00
23335;DHT22;11839;48.598;8.870;2023-07-22T12:28:38;27.70;70.10
23335;DHT22;11839;48.598;8.870;2023-07-22T12:31:04;28.00;69.10
23335;DHT22;11839;48.598;8.870;2023-07-22T12:33:31;28.20;67.40
23335;DHT22;11839;48.598;8.870;2023-07-22T12:35:58;28.10;65.40
23335;DHT22;11839;48.598;8.870;2023-07-22T12:38:25;28.30;66.70
23335;DHT22;11839;48.598;8.870;2023-07-22T12:40:52;28.40;66.70
23335;DHT22;11839;48.598;8.870;2023-07-22T12:43:18;28.70;65.80
23335;DHT22;11839;48.598;8.870;2023-07-22T12:45:46;28.80;65.40
23335;DHT22;11839;48.598;8.870;2023-07-22T12:48:13;29.00;65.50
23335;DHT22;11839;48.598;8.870;2023-07-22T12:50:40;29.00;65.80
23335;DHT22;11839;48.598;8.870;2023-07-22T12:53:07;29.00;66.10
23335;DHT22;11839;48.598;8.870;2023-07-22T12:55:34;29.10;65.60
23335;DHT22;11839;48.598;8.870;2023-07-22T12:58:01;29.30;62.90
23335;DHT22;11839;48.598;8.870;2023-07-22T13:00:28;29.20;64.00
23335;DHT22;11839;48.598;8.870;2023-07-22T13:02:56;29.20;64.80
23335;DHT22;11839;48.598;8.870;2023-07-22T13:05:23;28.60;65.20
23335;DHT22;11839;48.598;8.870;2023-07-22T13:07:50;27.70;65.80
23335;DHT22;11839;48.598;8.870;2023-07-22T13:10:18;27.30;67.40
23335;DHT22;11839;48.598;8.870;2023-07-22T13:12:47;27.80;67.40
23335;DHT22;11839;48.598;8.870;2023-07-22T13:15:14;28.20;67.10
23335;DHT22;11839;48.598;8.870;2023-07-22T13:17:40;28.20;65.70
23335;DHT22;11839;48.598;8.870;2023-07-22T13:20:10;28.50;65.40
23335;DHT22;11839;48.598;8.870;2023-07-22T13:22:37;29.00;64.60
23335;DHT22;11839;48.598;8.870;2023-07-22T13:25:04;28.80;63.30
23335;DHT22;11839;48.598;8.870;2023-07-22T13:27:31;28.60;63.60
23335;DHT22;11839;48.598;8.870;2023-07-22T13:29:59;28.30;64.20
23335;DHT22;11839;48.598;8.870;2023-07-22T13:32:26;28.70;64.40
23335;DHT22;11839;48.598;8.870;2023-07-22T13:34:53;29.60;63.50
23335;DHT22;11839;48.598;8.870;2023-07-22T13:37:21;29.40;64.10
23335;DHT22;11839;48.598;8.870;2023-07-22T13:39:48;28.80;65.40
23335;DHT22;11839;48.598;8.870;2023-07-22T13:42:14;29.40;66.20
23335;DHT22;11839;48.598;8.870;2023-07-22T13:44:41;30.00;65.00
23335;DHT22;11839;48.598;8.870;2023-07-22T13:47:08;30.00;65.30
23335;DHT22;11839;48.598;8.870;2023-07-22T13:49:35;29.80;64.30
23335;DHT22;11839;48.598;8.870;2023-07-22T13:52:01;29.60;65.20
23335;DHT22;11839;48.598;8.870;2023-07-22T13:54:30;29.70;64.80
23335;DHT22;11839;48.598;8.870;2023-07-22T13:56:56;29.60;64.20
23335;DHT22;11839;48.598;8.870;2023-07-22T13:59:23;29.20;63.70
23335;DHT22;11839;48.598;8.870;2023-07-22T14:01:50;29.00;63.90
23335;DHT22;11839;48.598;8.870;2023-07-22T14:04:17;29.10;64.50
23335;DHT22;11839;48.598;8.870;2023-07-22T14:06:43;29.50;64.20
23335;DHT22;11839;48.598;8.870;2023-07-22T14:09:10;29.60;63.80
23335;DHT22;11839;48.598;8.870;2023-07-22T14:11:38;30.30;62.90
23335;DHT22;11839;48.598;8.870;2023-07-22T14:14:05;31.40;61.70
23335;DHT22;11839;48.598;8.870;2023-07-22T14:16:32;32.20;59.90
23335;DHT22;11839;48.598;8.870;2023-07-22T14:18:59;32.10;59.60
23335;DHT22;11839;48.598;8.870;2023-07-22T14:21:25;32.10;59.70
23335;DHT22;11839;48.598;8.870;2023-07-22T14:23:52;32.80;58.50
23335;DHT22;11839;48.598;8.870;2023-07-22T14:26:20;33.20;57.80
23335;DHT22;11839;48.598;8.870;2023-07-22T14:28:48;32.50;58.00
23335;DHT22;11839;48.598;8.870;2023-07-22T14:31:15;32.80;58.00
23335;DHT22;11839;48.598;8.870;2023-07-22T14:33:41;32.50;57.50
23335;DHT22;11839;48.598;8.870;2023-07-22T14:36:08;32.70;58.10
23335;DHT22;11839;48.598;8.870;2023-07-22T14:38:35;34.00;56.80
23335;DHT22;11839;48.598;8.870;2023-07-22T14:41:02;32.90;56.80
23335;DHT22;11839;48.598;8.870;2023-07-22T14:43:29;32.50;56.80
23335;DHT22;11839;48.598;8.870;2023-07-22T14:45:57;32.20;57.40
23335;DHT22;11839;48.598;8.870;2023-07-22T14:48:23;32.00;58.00
23335;DHT22;11839;48.598;8.870;2023-07-22T14:50:50;31.40;58.40
23335;DHT22;11839;48.598;8.870;2023-07-22T14:53:17;30.80;59.10
23335;DHT22;11839;48.598;8.870;2023-07-22T14:55:44;30.50;59.50
23335;DHT22;11839;48.598;8.870;2023-07-22T14:58:11;30.10;60.90
23335;DHT22;11839;48.598;8.870;2023-07-22T15:00:38;30.20;60.80
23335;DHT22;11839;48.598;8.870;2023-07-22T15:03:06;30.50;60.40
23335;DHT22;11839;48.598;8.870;2023-07-22T15:05:33;30.60;59.80
23335;DHT22;11839;48.598;8.870;2023-07-22T15:07:59;30.90;59.70
23335;DHT22;11839;48.598;8.870;2023-07-22T15:10:27;30.90;59.40
23335;DHT22;11839;48.598;8.870;2023-07-22T15:12:54;31.10;59.20
23335;DHT22;11839;48.598;8.870;2023-07-22T15:15:21;30.70;59.60
23335;DHT22;11839;48.598;8.870;2023-07-22T15:17:48;29.80;59.00
23335;DHT22;11839;48.598;8.870;2023-07-22T15:20:16;29.60;59.80
23335;DHT22;11839;48.598;8.870;2023-07-22T15:22:43;29.20;60.00
23335;DHT22;11839;48.598;8.870;2023-07-22T15:25:10;28.80;60.50
23335;DHT22;11839;48.598;8.870;2023-07-22T15:27:37;28.70;61.60
23335;DHT22;11839;48.598;8.870;2023-07-22T15:30:04;28.50;61.60
23335;DHT22;11839;48.598;8.870;2023-07-22T15:32:31;28.20;62.20